Time;durP1;ratioP1;P1;durP2;ratioP2;P2;SDS_P1;SDS_P2;PMS_P1;PMS_P2;Temp;Humidity;BMP_temperature;BMP_pressure;BME280_temperature;BME280_humidity;BME280_pressure;Samples;Min_cycle;Max_cycle;Signal;HPM_P1;HPM_P2
2023/07/25 00:00:23;;;;;;;0.10;0.10;;;;;;;;;;5113583;28;20051;-59
2023/07/25 00:02:49;;;;;;;0.10;0.10;;;;;;;;;;5113714;28;20063;-60
2023/07/25 00:05:15;;;;;;;0.10;0.10;;;;;;;;;;5112997;28;20044;-61
2023/07/25 00:07:40;;;;;;;0.10;0.10;;;;;;;;;;5113261;28;20039;-62
2023/07/25 00:10:06;;;;;;;0.10;0.10;;;;;;;;;;5112487;28;20457;-61
2023/07/25 00:12:32;;;;;;;0.10;0.10;;;;;;;;;;5113268;28;20525;-60
2023/07/25 00:14:57;;;;;;;0.15;0.15;;;;;;;;;;5113755;28;20043;-61
2023/07/25 00:17:23;;;;;;;0.10;0.10;;;;;;;;;;5113366;28;20044;-60
2023/07/25 00:19:48;;;;;;;0.10;0.10;;;;;;;;;;5112929;28;20058;-61
2023/07/25 00:22:14;;;;;;;0.10;0.10;;;;;;;;;;5113349;28;20101;-60
2023/07/25 00:24:39;;;;;;;0.10;0.10;;;;;;;;;;5112765;28;20066;-60
2023/07/25 00:27:05;;;;;;;0.10;0.10;;;;;;;;;;5113488;28;20343;-61
2023/07/25 00:29:30;;;;;;;0.10;0.10;;;;;;;;;;5113387;28;20047;-60
2023/07/25 00:31:56;;;;;;;0.10;0.10;;;;;;;;;;5113109;28;20051;-60
2023/07/25 00:34:21;;;;;;;0.20;0.20;;;;;;;;;;5112925;28;20250;-60
2023/07/25 00:36:47;;;;;;;0.10;0.10;;;;;;;;;;5113290;28;20376;-60
2023/07/25 00:39:13;;;;;;;0.10;0.10;;;;;;;;;;5112859;28;20404;-61
2023/07/25 00:41:38;;;;;;;0.10;0.10;;;;;;;;;;5111636;28;20484;-60
2023/07/25 00:44:04;;;;;;;0.10;0.10;;;;;;;;;;5113080;28;20043;-61
2023/07/25 00:46:29;;;;;;;0.10;0.10;;;;;;;;;;5112805;28;20055;-61
2023/07/25 00:48:55;;;;;;;0.10;0.10;;;;;;;;;;5112591;28;20396;-61
2023/07/25 00:51:21;;;;;;;0.10;0.10;;;;;;;;;;5112511;28;20128;-61
2023/07/25 00:53:46;;;;;;;0.10;0.10;;;;;;;;;;5100326;28;20039;-61
2023/07/25 00:56:12;;;;;;;0.10;0.10;;;;;;;;;;5129776;28;20377;-60
2023/07/25 00:58:38;;;;;;;0.10;0.10;;;;;;;;;;5110522;28;20483;-61
2023/07/25 01:01:04;;;;;;;0.10;0.10;;;;;;;;;;5111652;28;20051;-61
2023/07/25 01:03:31;;;;;;;0.10;0.10;;;;;;;;;;5112302;28;20059;-60
2023/07/25 01:05:56;;;;;;;0.10;0.10;;;;;;;;;;5112154;28;20055;-60
2023/07/25 01:08:22;;;;;;;0.10;0.10;;;;;;;;;;5112106;28;20097;-61
2023/07/25 01:10:47;;;;;;;0.10;0.10;;;;;;;;;;5111365;28;20051;-61
2023/07/25 01:13:13;;;;;;;0.10;0.10;;;;;;;;;;5112413;28;20535;-61
2023/07/25 01:15:39;;;;;;;0.10;0.10;;;;;;;;;;5111621;28;20541;-61
2023/07/25 01:18:05;;;;;;;0.10;0.10;;;;;;;;;;5111802;28;20045;-60
2023/07/25 01:20:32;;;;;;;0.10;0.10;;;;;;;;;;5111799;28;20139;-61
2023/07/25 01:22:58;;;;;;;0.10;0.10;;;;;;;;;;5111624;28;20082;-61
2023/07/25 01:25:24;;;;;;;0.10;0.10;;;;;;;;;;5111750;28;20100;-60
2023/07/25 01:27:50;;;;;;;0.10;0.10;;;;;;;;;;5112155;28;20047;-60
2023/07/25 01:30:15;;;;;;;0.10;0.10;;;;;;;;;;5111704;28;20055;-60
2023/07/25 01:32:41;;;;;;;0.10;0.10;;;;;;;;;;5112042;28;20078;-59
2023/07/25 01:35:07;;;;;;;0.10;0.10;;;;;;;;;;5111555;28;20047;-60
2023/07/25 01:37:32;;;;;;;0.10;0.10;;;;;;;;;;5111619;28;20556;-60
2023/07/25 01:39:58;;;;;;;0.10;0.10;;;;;;;;;;5111840;28;20543;-60
2023/07/25 01:42:23;;;;;;;0.10;0.10;;;;;;;;;;5111349;28;20059;-61
2023/07/25 01:44:49;;;;;;;0.10;0.10;;;;;;;;;;5112088;28;20064;-60
2023/07/25 01:47:14;;;;;;;0.10;0.10;;;;;;;;;;5111450;28;20043;-61
2023/07/25 01:49:40;;;;;;;0.10;0.10;;;;;;;;;;5112141;28;20052;-61
2023/07/25 01:52:06;;;;;;;0.10;0.10;;;;;;;;;;5109381;28;20096;-60
2023/07/25 01:54:31;;;;;;;0.10;0.10;;;;;;;;;;5122552;28;20092;-60
2023/07/25 01:56:57;;;;;;;0.10;0.10;;;;;;;;;;5112012;28;20059;-60
2023/07/25 01:59:22;;;;;;;0.10;0.10;;;;;;;;;;5110809;28;20069;-61
2023/07/25 02:01:48;;;;;;;0.10;0.10;;;;;;;;;;5111850;28;20050;-60
2023/07/25 02:04:13;;;;;;;0.13;0.13;;;;;;;;;;5111975;28;20044;-60
2023/07/25 02:06:39;;;;;;;0.10;0.10;;;;;;;;;;5111776;28;20047;-61
2023/07/25 02:09:04;;;;;;;0.10;0.10;;;;;;;;;;5111410;28;20051;-60
2023/07/25 02:11:30;;;;;;;0.10;0.10;;;;;;;;;;5110742;28;20054;-60
2023/07/25 02:13:56;;;;;;;0.10;0.10;;;;;;;;;;5111813;28;20134;-61
2023/07/25 02:16:21;;;;;;;0.10;0.10;;;;;;;;;;5111489;28;20047;-60
2023/07/25 02:18:47;;;;;;;0.10;0.10;;;;;;;;;;5111591;28;20075;-60
2023/07/25 02:21:13;;;;;;;0.17;0.17;;;;;;;;;;5110878;28;20127;-61
2023/07/25 02:23:38;;;;;;;0.10;0.10;;;;;;;;;;5111322;28;20109;-60
2023/07/25 02:26:04;;;;;;;0.10;0.10;;;;;;;;;;5111440;28;20080;-60
2023/07/25 02:28:29;;;;;;;0.10;0.10;;;;;;;;;;5111281;28;20082;-60
2023/07/25 02:30:55;;;;;;;0.10;0.10;;;;;;;;;;5111164;28;20044;-60
2023/07/25 02:33:20;;;;;;;0.10;0.10;;;;;;;;;;5111658;28;20473;-60
2023/07/25 02:35:46;;;;;;;0.10;0.10;;;;;;;;;;5110980;28;20184;-60
2023/07/25 02:38:11;;;;;;;0.10;0.10;;;;;;;;;;5111111;28;20491;-60
2023/07/25 02:40:37;;;;;;;0.10;0.10;;;;;;;;;;5110314;28;20071;-60
2023/07/25 02:43:05;;;;;;;0.10;0.10;;;;;;;;;;5110965;28;20051;-61
2023/07/25 02:45:31;;;;;;;;;;;;;;;;;;5111497;28;20376;-61
2023/07/25 02:47:56;;;;;;;0.10;0.10;;;;;;;;;;5111062;28;20375;-60
2023/07/25 02:50:22;;;;;;;0.10;0.10;;;;;;;;;;5107928;28;20075;-60
2023/07/25 02:52:47;;;;;;;0.10;0.10;;;;;;;;;;5119081;28;20050;-60
2023/07/25 02:55:13;;;;;;;0.10;0.10;;;;;;;;;;5127146;27;20062;-61
2023/07/25 02:57:38;;;;;;;0.10;0.10;;;;;;;;;;5120428;28;20476;-60
2023/07/25 03:00:05;;;;;;;0.10;0.10;;;;;;;;;;5110321;28;20433;-61
2023/07/25 03:02:31;;;;;;;0.10;0.10;;;;;;;;;;5111217;28;20105;-61
2023/07/25 03:04:56;;;;;;;0.10;0.10;;;;;;;;;;5111110;28;20048;-60
2023/07/25 03:07:22;;;;;;;0.20;0.20;;;;;;;;;;5110748;28;20051;-60
2023/07/25 03:09:47;;;;;;;0.10;0.10;;;;;;;;;;5110700;28;20046;-60
2023/07/25 03:12:13;;;;;;;0.20;0.20;;;;;;;;;;5113735;28;20120;-60
2023/07/25 03:14:38;;;;;;;0.10;0.10;;;;;;;;;;5114774;28;20522;-60
2023/07/25 03:17:04;;;;;;;0.10;0.10;;;;;;;;;;5113969;28;20051;-60
2023/07/25 03:19:29;;;;;;;0.10;0.10;;;;;;;;;;5114603;28;20097;-60
2023/07/25 03:21:55;;;;;;;0.20;0.20;;;;;;;;;;5114106;28;20116;-60
2023/07/25 03:24:20;;;;;;;0.10;0.10;;;;;;;;;;5113980;28;20047;-60
2023/07/25 03:26:46;;;;;;;0.10;0.10;;;;;;;;;;5113890;28;20070;-61
2023/07/25 03:29:12;;;;;;;0.10;0.10;;;;;;;;;;5113939;28;20063;-60
2023/07/25 03:31:37;;;;;;;0.10;0.10;;;;;;;;;;5113918;28;20044;-61
2023/07/25 03:34:03;;;;;;;0.10;0.10;;;;;;;;;;5114456;28;20096;-60
2023/07/25 03:36:29;;;;;;;0.10;0.10;;;;;;;;;;5114428;28;20058;-60
2023/07/25 03:38:55;;;;;;;0.10;0.10;;;;;;;;;;5114208;28;20043;-60
2023/07/25 03:41:20;;;;;;;0.10;0.10;;;;;;;;;;5112848;28;20052;-60
2023/07/25 03:43:46;;;;;;;0.10;0.10;;;;;;;;;;5113955;28;20051;-60
2023/07/25 03:46:11;;;;;;;0.10;0.10;;;;;;;;;;5112896;28;20073;-61
2023/07/25 03:48:37;;;;;;;0.10;0.10;;;;;;;;;;5113309;28;20051;-61
2023/07/25 03:51:02;;;;;;;0.15;0.15;;;;;;;;;;5109659;28;20472;-61
2023/07/25 03:53:28;;;;;;;0.10;0.10;;;;;;;;;;5113450;28;20286;-60
2023/07/25 03:55:53;;;;;;;0.10;0.10;;;;;;;;;;5113515;28;20043;-61
2023/07/25 03:58:19;;;;;;;0.10;0.10;;;;;;;;;;5112724;28;20043;-60
2023/07/25 04:00:44;;;;;;;0.20;0.20;;;;;;;;;;5112823;28;20052;-60
2023/07/25 04:03:10;;;;;;;0.10;0.10;;;;;;;;;;5112654;28;20092;-61
2023/07/25 04:05:41;;;;;;;0.10;0.10;;;;;;;;;;5113002;28;20055;-60
2023/07/25 04:08:06;;;;;;;0.10;0.10;;;;;;;;;;5112842;28;20053;-60
2023/07/25 04:10:32;;;;;;;0.10;0.10;;;;;;;;;;5111964;28;20048;-60
2023/07/25 04:12:57;;;;;;;0.10;0.10;;;;;;;;;;5112745;28;20039;-60
2023/07/25 04:15:23;;;;;;;0.10;0.10;;;;;;;;;;5112713;28;20051;-61
2023/07/25 04:17:48;;;;;;;0.10;0.10;;;;;;;;;;5112329;28;20400;-60
2023/07/25 04:20:14;;;;;;;0.10;0.10;;;;;;;;;;5112310;28;20087;-60
2023/07/25 04:22:39;;;;;;;0.10;0.10;;;;;;;;;;5112045;28;20134;-60
2023/07/25 04:25:05;;;;;;;0.10;0.10;;;;;;;;;;5112353;28;20056;-60
2023/07/25 04:27:31;;;;;;;0.10;0.10;;;;;;;;;;5112244;28;20047;-60
2023/07/25 04:29:57;;;;;;;0.10;0.10;;;;;;;;;;5112378;28;20134;-61
2023/07/25 04:32:22;;;;;;;0.10;0.10;;;;;;;;;;5111991;28;20154;-61
2023/07/25 04:34:48;;;;;;;0.10;0.10;;;;;;;;;;5113126;28;20096;-60
2023/07/25 04:37:13;;;;;;;0.10;0.10;;;;;;;;;;5113127;28;20144;-60
2023/07/25 04:39:39;;;;;;;0.10;0.10;;;;;;;;;;5112922;28;20047;-60
2023/07/25 04:42:05;;;;;;;0.10;0.10;;;;;;;;;;5111495;28;20431;-60
2023/07/25 04:44:30;;;;;;;0.10;0.10;;;;;;;;;;5112629;28;20059;-60
2023/07/25 04:46:56;;;;;;;0.10;0.10;;;;;;;;;;5111821;28;20054;-60
2023/07/25 04:49:22;;;;;;;0.10;0.10;;;;;;;;;;5104117;28;20040;-60
2023/07/25 04:51:47;;;;;;;0.10;0.10;;;;;;;;;;5114964;28;20097;-61
2023/07/25 04:54:13;;;;;;;0.20;0.20;;;;;;;;;;5112482;28;20403;-61
2023/07/25 04:56:40;;;;;;;0.10;0.10;;;;;;;;;;5112644;28;20058;-60
2023/07/25 04:59:06;;;;;;;0.10;0.10;;;;;;;;;;5112438;28;20079;-60
2023/07/25 05:01:32;;;;;;;0.20;0.20;;;;;;;;;;5112352;28;20189;-61
2023/07/25 05:03:58;;;;;;;0.10;0.10;;;;;;;;;;5111903;28;20051;-60
2023/07/25 05:06:23;;;;;;;0.10;0.10;;;;;;;;;;5112377;28;20048;-60
2023/07/25 05:08:49;;;;;;;0.10;0.10;;;;;;;;;;5112318;28;20472;-60
2023/07/25 05:11:14;;;;;;;0.10;0.10;;;;;;;;;;5111699;28;20059;-60
2023/07/25 05:13:40;;;;;;;0.20;0.20;;;;;;;;;;5112736;28;20055;-60
2023/07/25 05:16:05;;;;;;;0.10;0.10;;;;;;;;;;5112368;28;20499;-61
2023/07/25 05:18:31;;;;;;;0.10;0.10;;;;;;;;;;5112502;28;20055;-60
2023/07/25 05:20:57;;;;;;;0.10;0.10;;;;;;;;;;5112253;28;20138;-61
2023/07/25 05:23:22;;;;;;;0.10;0.10;;;;;;;;;;5112692;28;20083;-60
2023/07/25 05:25:48;;;;;;;0.10;0.10;;;;;;;;;;5112740;28;20158;-61
2023/07/25 05:28:14;;;;;;;0.10;0.10;;;;;;;;;;5112402;28;20048;-60
2023/07/25 05:30:39;;;;;;;0.10;0.10;;;;;;;;;;5111985;28;20101;-61
2023/07/25 05:33:05;;;;;;;0.10;0.10;;;;;;;;;;5111774;28;20435;-60
2023/07/25 05:35:31;;;;;;;0.10;0.10;;;;;;;;;;5112648;28;20054;-60
2023/07/25 05:37:56;;;;;;;0.10;0.10;;;;;;;;;;5111919;28;20047;-59
2023/07/25 05:40:22;;;;;;;0.10;0.10;;;;;;;;;;5111343;28;20048;-59
2023/07/25 05:42:48;;;;;;;0.10;0.10;;;;;;;;;;5112442;28;20043;-59
2023/07/25 05:45:13;;;;;;;0.10;0.10;;;;;;;;;;5111761;28;20101;-60
2023/07/25 05:47:39;;;;;;;0.10;0.10;;;;;;;;;;5111482;28;20069;-60
2023/07/25 05:50:05;;;;;;;0.10;0.10;;;;;;;;;;5106147;27;20047;-61
2023/07/25 05:52:31;;;;;;;0.10;0.10;;;;;;;;;;5111465;28;20055;-61
2023/07/25 05:54:56;;;;;;;0.10;0.10;;;;;;;;;;5111644;28;20047;-61
2023/07/25 05:57:22;;;;;;;0.10;0.10;;;;;;;;;;5111459;28;20039;-60
2023/07/25 05:59:47;;;;;;;0.10;0.10;;;;;;;;;;5111477;28;20073;-60
2023/07/25 06:02:13;;;;;;;0.10;0.10;;;;;;;;;;5111473;28;20074;-61
2023/07/25 06:04:39;;;;;;;0.10;0.10;;;;;;;;;;5111596;28;20054;-61
2023/07/25 06:07:05;;;;;;;0.10;0.10;;;;;;;;;;5110970;28;20469;-61
2023/07/25 06:09:30;;;;;;;0.20;0.20;;;;;;;;;;5111085;28;20070;-60
2023/07/25 06:11:56;;;;;;;0.10;0.10;;;;;;;;;;5110093;28;20412;-60
2023/07/25 06:14:22;;;;;;;0.10;0.10;;;;;;;;;;5111300;28;20638;-60
2023/07/25 06:16:47;;;;;;;0.10;0.10;;;;;;;;;;5110741;28;20054;-60
2023/07/25 06:19:13;;;;;;;0.32;0.32;;;;;;;;;;5111384;28;20069;-60
2023/07/25 06:21:38;;;;;;;0.10;0.10;;;;;;;;;;5110990;28;20052;-61
2023/07/25 06:24:04;;;;;;;0.10;0.10;;;;;;;;;;5111235;28;20044;-60
2023/07/25 06:26:29;;;;;;;0.20;0.20;;;;;;;;;;5111110;28;20048;-60
2023/07/25 06:28:55;;;;;;;0.20;0.20;;;;;;;;;;5111083;28;20519;-61
2023/07/25 06:31:20;;;;;;;0.10;0.10;;;;;;;;;;5110163;28;20058;-61
2023/07/25 06:33:46;;;;;;;0.15;0.15;;;;;;;;;;5110900;28;20089;-61
2023/07/25 06:36:11;;;;;;;0.10;0.10;;;;;;;;;;5110759;28;20408;-60
2023/07/25 06:38:37;;;;;;;0.17;0.17;;;;;;;;;;5111186;28;20055;-61
2023/07/25 06:41:02;;;;;;;0.10;0.10;;;;;;;;;;5109647;28;20055;-59
2023/07/25 06:43:28;;;;;;;0.10;0.10;;;;;;;;;;5110180;28;20047;-60
2023/07/25 06:45:54;;;;;;;0.10;0.10;;;;;;;;;;5109200;28;20052;-60
2023/07/25 06:48:19;;;;;;;0.10;0.10;;;;;;;;;;5102518;28;20044;-61
2023/07/25 06:50:45;;;;;;;0.10;0.10;;;;;;;;;;5109660;28;20040;-61
2023/07/25 06:53:11;;;;;;;0.10;0.10;;;;;;;;;;5110625;28;20508;-60
2023/07/25 06:55:37;;;;;;;0.10;0.10;;;;;;;;;;5110769;28;20054;-60
2023/07/25 06:58:03;;;;;;;0.10;0.10;;;;;;;;;;5110440;28;20377;-61
2023/07/25 07:00:28;;;;;;;0.10;0.10;;;;;;;;;;5110470;28;20100;-61
2023/07/25 07:02:54;;;;;;;0.10;0.10;;;;;;;;;;5110693;28;20446;-61
2023/07/25 07:05:20;;;;;;;0.10;0.10;;;;;;;;;;5110326;28;20478;-60
2023/07/25 07:07:55;;;;;;;0.10;0.10;;;;;;;;;;5110107;28;20055;-60
2023/07/25 07:10:21;;;;;;;0.10;0.10;;;;;;;;;;5109969;28;20095;-60
2023/07/25 07:12:47;;;;;;;0.10;0.10;;;;;;;;;;5110308;28;20055;-61
2023/07/25 07:15:14;;;;;;;0.10;0.10;;;;;;;;;;5110128;28;20051;-60
2023/07/25 07:17:40;;;;;;;0.10;0.10;;;;;;;;;;5109954;28;20075;-61
2023/07/25 07:20:06;;;;;;;0.10;0.10;;;;;;;;;;5110276;28;20492;-61
2023/07/25 07:22:32;;;;;;;0.10;0.10;;;;;;;;;;5110994;28;20047;-61
2023/07/25 07:24:57;;;;;;;0.10;0.10;;;;;;;;;;5110913;28;20059;-60
2023/07/25 07:27:23;;;;;;;0.20;0.20;;;;;;;;;;5111126;28;20040;-60
2023/07/25 07:29:49;;;;;;;0.10;0.10;;;;;;;;;;5110437;28;20109;-60
2023/07/25 07:32:14;;;;;;;0.10;0.10;;;;;;;;;;5110607;28;20048;-60
2023/07/25 07:34:40;;;;;;;0.10;0.10;;;;;;;;;;5110653;28;20043;-60
2023/07/25 07:37:05;;;;;;;0.10;0.10;;;;;;;;;;5110178;28;20086;-61
2023/07/25 07:39:31;;;;;;;0.10;0.10;;;;;;;;;;5110747;28;20052;-60
2023/07/25 07:41:56;;;;;;;0.10;0.10;;;;;;;;;;5109643;28;20047;-60
2023/07/25 07:44:22;;;;;;;0.10;0.10;;;;;;;;;;5110581;28;20044;-60
2023/07/25 07:46:50;;;;;;;0.10;0.10;;;;;;;;;;5109646;28;20567;-60
2023/07/25 07:49:16;;;;;;;0.10;0.10;;;;;;;;;;5109709;28;20051;-61
2023/07/25 07:51:41;;;;;;;0.10;0.10;;;;;;;;;;5112927;28;20048;-60
2023/07/25 07:54:07;;;;;;;0.10;0.10;;;;;;;;;;5110443;28;20386;-60
2023/07/25 07:56:33;;;;;;;0.10;0.10;;;;;;;;;;5110504;28;20039;-61
2023/07/25 07:58:58;;;;;;;0.10;0.10;;;;;;;;;;5113048;28;20053;-61
2023/07/25 08:01:24;;;;;;;0.10;0.10;;;;;;;;;;5113583;28;20051;-61
2023/07/25 08:03:50;;;;;;;0.10;0.10;;;;;;;;;;5114192;28;20403;-61
2023/07/25 08:06:15;;;;;;;0.10;0.10;;;;;;;;;;5113468;28;20047;-61
2023/07/25 08:08:41;;;;;;;0.10;0.10;;;;;;;;;;5113753;28;20039;-61
2023/07/25 08:11:07;;;;;;;0.10;0.10;;;;;;;;;;5112621;28;20051;-60
2023/07/25 08:13:32;;;;;;;0.10;0.10;;;;;;;;;;5112906;28;20131;-60
2023/07/25 08:15:58;;;;;;;0.10;0.10;;;;;;;;;;5113429;28;20051;-61
2023/07/25 08:18:24;;;;;;;0.10;0.10;;;;;;;;;;5113575;28;20043;-61
2023/07/25 08:20:57;;;;;;;0.10;0.10;;;;;;;;;;5112216;28;20052;-61
2023/07/25 08:23:23;;;;;;;0.10;0.10;;;;;;;;;;5113770;28;20040;-61
2023/07/25 08:25:48;;;;;;;0.10;0.10;;;;;;;;;;5113649;28;20224;-60
2023/07/25 08:28:14;;;;;;;0.10;0.10;;;;;;;;;;5113664;28;20039;-60
2023/07/25 08:30:40;;;;;;;0.10;0.10;;;;;;;;;;5112675;28;20048;-60
2023/07/25 08:33:05;;;;;;;0.10;0.10;;;;;;;;;;5112806;28;20131;-61
2023/07/25 08:35:31;;;;;;;0.13;0.13;;;;;;;;;;5112953;28;20060;-60
2023/07/25 08:37:56;;;;;;;0.10;0.10;;;;;;;;;;5112968;28;20055;-61
2023/07/25 08:40:22;;;;;;;0.10;0.10;;;;;;;;;;5112548;28;20607;-60
2023/07/25 08:42:49;;;;;;;0.10;0.10;;;;;;;;;;5113402;28;20071;-60
2023/07/25 08:45:14;;;;;;;0.10;0.10;;;;;;;;;;5113155;28;20055;-61
2023/07/25 08:47:41;;;;;;;0.10;0.10;;;;;;;;;;5094119;28;20109;-60
2023/07/25 08:50:11;;;;;;;0.10;0.10;;;;;;;;;;5113113;28;20047;-61
2023/07/25 08:52:39;;;;;;;0.10;0.10;;;;;;;;;;5112672;28;20051;-61
2023/07/25 08:55:04;;;;;;;0.10;0.10;;;;;;;;;;5111034;28;20104;-61
2023/07/25 08:57:31;;;;;;;0.20;0.20;;;;;;;;;;5112986;28;20043;-61
2023/07/25 08:59:56;;;;;;;0.10;0.10;;;;;;;;;;5112686;28;20086;-61
2023/07/25 09:02:22;;;;;;;0.10;0.10;;;;;;;;;;5113096;28;20138;-60
2023/07/25 09:04:48;;;;;;;0.10;0.10;;;;;;;;;;5113143;28;20043;-61
2023/07/25 09:07:14;;;;;;;0.10;0.10;;;;;;;;;;5113026;28;20055;-60
2023/07/25 09:09:39;;;;;;;0.10;0.10;;;;;;;;;;5112499;28;20134;-60
2023/07/25 09:12:07;;;;;;;0.17;0.17;;;;;;;;;;5112144;28;20408;-60
2023/07/25 09:14:33;;;;;;;0.10;0.10;;;;;;;;;;5112771;28;20047;-60
2023/07/25 09:16:58;;;;;;;0.10;0.10;;;;;;;;;;5112389;28;20055;-61
2023/07/25 09:19:24;;;;;;;0.10;0.10;;;;;;;;;;5112663;28;20499;-60
2023/07/25 09:21:52;;;;;;;0.10;0.10;;;;;;;;;;5112254;28;20393;-60
2023/07/25 09:24:18;;;;;;;0.10;0.10;;;;;;;;;;5112563;28;20039;-60
2023/07/25 09:26:51;;;;;;;0.20;0.20;;;;;;;;;;5112403;28;20461;-60
2023/07/25 09:29:17;;;;;;;0.10;0.10;;;;;;;;;;5112038;28;20503;-61
2023/07/25 09:31:44;;;;;;;0.10;0.10;;;;;;;;;;5111901;28;20044;-60
2023/07/25 09:34:14;;;;;;;0.10;0.10;;;;;;;;;;5111525;28;20043;-61
2023/07/25 09:36:43;;;;;;;0.10;0.10;;;;;;;;;;5111423;28;20070;-59
2023/07/25 09:39:09;;;;;;;0.10;0.10;;;;;;;;;;5111696;28;20055;-61
2023/07/25 09:41:34;;;;;;;0.10;0.10;;;;;;;;;;5110810;28;20043;-60
2023/07/25 09:44:02;;;;;;;0.10;0.10;;;;;;;;;;5111738;28;20055;-61
2023/07/25 09:46:28;;;;;;;0.10;0.10;;;;;;;;;;5109630;28;20047;-61
2023/07/25 09:48:54;;;;;;;0.10;0.10;;;;;;;;;;5117223;28;20054;-60
2023/07/25 09:51:19;;;;;;;0.10;0.10;;;;;;;;;;5117695;28;20403;-60
2023/07/25 09:53:49;;;;;;;0.10;0.10;;;;;;;;;;5111792;28;20097;-59
2023/07/25 09:56:15;;;;;;;0.10;0.10;;;;;;;;;;5110887;28;20044;-60
2023/07/25 09:58:41;;;;;;;0.10;0.10;;;;;;;;;;5111024;28;20051;-60
2023/07/25 10:01:26;;;;;;;0.10;0.10;;;;;;;;;;5101381;28;20047;-60
2023/07/25 10:03:52;;;;;;;0.10;0.10;;;;;;;;;;5111543;28;20067;-60
2023/07/25 10:06:18;;;;;;;0.10;0.10;;;;;;;;;;5111380;28;20460;-60
2023/07/25 10:08:43;;;;;;;0.10;0.10;;;;;;;;;;5111340;28;20051;-60
2023/07/25 10:11:10;;;;;;;0.10;0.10;;;;;;;;;;5110905;28;20051;-60
2023/07/25 10:13:36;;;;;;;0.10;0.10;;;;;;;;;;5111809;28;20459;-60
2023/07/25 10:16:02;;;;;;;0.10;0.10;;;;;;;;;;5111586;28;20062;-60
2023/07/25 10:18:32;;;;;;;0.10;0.10;;;;;;;;;;5111675;28;20404;-60
2023/07/25 10:20:57;;;;;;;0.10;0.10;;;;;;;;;;5110044;28;20051;-61
2023/07/25 10:23:31;;;;;;;0.20;0.20;;;;;;;;;;5111983;28;20043;-61
2023/07/25 10:26:08;;;;;;;0.10;0.10;;;;;;;;;;5111943;28;20178;-61
2023/07/25 10:28:35;;;;;;;0.10;0.10;;;;;;;;;;5111727;28;20048;-60
2023/07/25 10:31:04;;;;;;;0.17;0.17;;;;;;;;;;5110580;28;20044;-60
2023/07/25 10:33:35;;;;;;;0.10;0.10;;;;;;;;;;5111640;28;20050;-60
2023/07/25 10:36:01;;;;;;;0.20;0.20;;;;;;;;;;5110955;28;20043;-60
2023/07/25 10:38:32;;;;;;;0.20;0.20;;;;;;;;;;5110840;28;20412;-61
2023/07/25 10:40:58;;;;;;;0.10;0.10;;;;;;;;;;5110278;28;20081;-61
2023/07/25 10:43:26;;;;;;;0.10;0.10;;;;;;;;;;5111382;28;20047;-60
2023/07/25 10:45:54;;;;;;;0.10;0.10;;;;;;;;;;5110478;28;20311;-60
2023/07/25 10:48:40;;;;;;;0.20;0.20;;;;;;;;;;5119507;28;20043;-60
2023/07/25 10:51:07;;;;;;;0.15;0.15;;;;;;;;;;5104278;28;20039;-61
2023/07/25 10:53:33;;;;;;;0.20;0.20;;;;;;;;;;5110906;28;20086;-60
2023/07/25 10:59:00;;;;;;;0.10;0.10;;;;;;;;;;5190759;27;20140;-58
2023/07/25 11:01:46;;;;;;;0.20;0.20;;;;;;;;;;5154121;27;20050;-58
2023/07/25 11:04:28;;;;;;;0.10;0.10;;;;;;;;;;5154252;27;20107;-58
2023/07/25 11:06:55;;;;;;;0.10;0.10;;;;;;;;;;5170068;27;20573;-58
2023/07/25 11:09:21;;;;;;;0.10;0.10;;;;;;;;;;5170100;27;20050;-58
2023/07/25 11:11:48;;;;;;;0.20;0.20;;;;;;;;;;5169150;27;20099;-58
2023/07/25 11:14:15;;;;;;;0.10;0.10;;;;;;;;;;5170050;27;20055;-58
2023/07/25 11:16:41;;;;;;;0.10;0.10;;;;;;;;;;5169508;27;20474;-58
2023/07/25 11:19:07;;;;;;;0.10;0.10;;;;;;;;;;5169600;27;20058;-57
2023/07/25 11:21:37;;;;;;;0.10;0.10;;;;;;;;;;5169396;27;20049;-58
2023/07/25 11:24:04;;;;;;;0.10;0.10;;;;;;;;;;5169737;27;20046;-58
2023/07/25 11:26:30;;;;;;;0.20;0.20;;;;;;;;;;5169715;27;20051;-58
2023/07/25 11:28:56;;;;;;;0.30;0.30;;;;;;;;;;5169556;27;20053;-57
2023/07/25 11:31:22;;;;;;;0.10;0.10;;;;;;;;;;5168997;27;20085;-58
2023/07/25 11:33:48;;;;;;;0.10;0.10;;;;;;;;;;5169514;27;20096;-58
2023/07/25 11:36:13;;;;;;;0.10;0.10;;;;;;;;;;5168842;27;20050;-58
2023/07/25 11:38:39;;;;;;;0.20;0.20;;;;;;;;;;5168415;27;20069;-58
2023/07/25 11:41:05;;;;;;;0.15;0.15;;;;;;;;;;5155890;27;20054;-58
2023/07/25 11:43:31;;;;;;;0.10;0.10;;;;;;;;;;5158057;27;20046;-58
2023/07/25 11:45:56;;;;;;;0.10;0.10;;;;;;;;;;5163335;27;20046;-58
2023/07/25 11:48:22;;;;;;;0.10;0.10;;;;;;;;;;5147999;27;20199;-57
2023/07/25 11:50:49;;;;;;;0.10;0.10;;;;;;;;;;5157086;27;20121;-58
2023/07/25 11:53:16;;;;;;;0.10;0.10;;;;;;;;;;5168609;27;20046;-58
2023/07/25 11:55:42;;;;;;;0.20;0.20;;;;;;;;;;5168106;27;20050;-58
2023/07/25 11:58:15;;;;;;;0.10;0.10;;;;;;;;;;5168366;27;20082;-58
2023/07/25 12:00:41;;;;;;;0.10;0.10;;;;;;;;;;5166745;27;20047;-58
2023/07/25 12:03:23;;;;;;;0.10;0.10;;;;;;;;;;5168855;27;20142;-58
2023/07/25 12:05:53;;;;;;;0.10;0.10;;;;;;;;;;5168582;27;20043;-58
2023/07/25 12:08:38;;;;;;;0.20;0.20;;;;;;;;;;5164931;27;20039;-57
2023/07/25 12:11:05;;;;;;;0.10;0.10;;;;;;;;;;5138154;27;20047;-57
2023/07/25 12:13:30;;;;;;;0.10;0.10;;;;;;;;;;5154372;27;20077;-58
2023/07/25 12:15:57;;;;;;;0.10;0.10;;;;;;;;;;5154019;27;20479;-58
2023/07/25 12:18:27;;;;;;;0.10;0.10;;;;;;;;;;5154483;27;20622;-58
2023/07/25 12:20:53;;;;;;;0.10;0.10;;;;;;;;;;5154160;27;20038;-58
2023/07/25 12:23:27;;;;;;;0.10;0.10;;;;;;;;;;5154287;27;20077;-58
2023/07/25 12:25:54;;;;;;;0.10;0.10;;;;;;;;;;5154321;27;20043;-58
2023/07/25 12:28:19;;;;;;;0.10;0.10;;;;;;;;;;5154519;27;20403;-58
2023/07/25 12:30:45;;;;;;;0.10;0.10;;;;;;;;;;5153722;27;20478;-58
2023/07/25 12:33:10;;;;;;;0.10;0.10;;;;;;;;;;5154385;27;20050;-58
2023/07/25 12:35:36;;;;;;;0.10;0.10;;;;;;;;;;5154277;27;20050;-55
2023/07/25 12:38:01;;;;;;;0.10;0.10;;;;;;;;;;5153594;27;20562;-57
2023/07/25 12:40:27;;;;;;;0.10;0.10;;;;;;;;;;5152964;27;20653;-58
2023/07/25 12:42:52;;;;;;;0.10;0.10;;;;;;;;;;5153087;27;20086;-58
2023/07/25 12:45:18;;;;;;;0.10;0.10;;;;;;;;;;5152999;27;20428;-58
2023/07/25 12:47:43;;;;;;;0.10;0.10;;;;;;;;;;5165841;27;20499;-58
2023/07/25 12:50:09;;;;;;;0.10;0.10;;;;;;;;;;5152422;27;20497;-58
2023/07/25 12:52:35;;;;;;;0.10;0.10;;;;;;;;;;5153534;27;20399;-58
2023/07/25 12:55:01;;;;;;;0.10;0.10;;;;;;;;;;5153846;27;20487;-58
2023/07/25 12:57:29;;;;;;;0.10;0.10;;;;;;;;;;5153086;27;20050;-58
2023/07/25 12:59:54;;;;;;;;;;;;;;;;;;5151829;27;20483;-58
2023/07/25 13:02:20;;;;;;;0.10;0.10;;;;;;;;;;5153069;27;19958;-57
2023/07/25 13:04:46;;;;;;;0.10;0.10;;;;;;;;;;5153639;27;20371;-57
2023/07/25 13:07:11;;;;;;;0.10;0.10;;;;;;;;;;5153218;27;20073;-57
2023/07/25 13:09:37;;;;;;;0.10;0.10;;;;;;;;;;5153904;27;20047;-58
2023/07/25 13:12:02;;;;;;;0.10;0.10;;;;;;;;;;5133024;27;20134;-58
2023/07/25 13:14:28;;;;;;;0.10;0.10;;;;;;;;;;5140235;27;20095;-58
2023/07/25 13:16:53;;;;;;;0.10;0.10;;;;;;;;;;5152824;27;20039;-58
2023/07/25 13:19:19;;;;;;;0.10;0.10;;;;;;;;;;5152983;27;20050;-58
2023/07/25 13:21:44;;;;;;;0.10;0.10;;;;;;;;;;5132225;27;20074;-58
2023/07/25 13:24:10;;;;;;;0.10;0.10;;;;;;;;;;5144820;27;20495;-58
2023/07/25 13:26:35;;;;;;;0.10;0.10;;;;;;;;;;5149051;27;20080;-58
2023/07/25 13:29:01;;;;;;;0.10;0.10;;;;;;;;;;5150801;27;20054;-58
2023/07/25 13:31:27;;;;;;;0.10;0.10;;;;;;;;;;5134630;27;20047;-58
2023/07/25 13:33:52;;;;;;;0.10;0.10;;;;;;;;;;5131831;28;20043;-58
2023/07/25 13:36:18;;;;;;;0.10;0.10;;;;;;;;;;5131534;28;20054;-57
2023/07/25 13:38:44;;;;;;;0.10;0.10;;;;;;;;;;5131121;28;20543;-57
2023/07/25 13:41:09;;;;;;;0.10;0.10;;;;;;;;;;5144138;27;20073;-57
2023/07/25 13:43:35;;;;;;;0.10;0.10;;;;;;;;;;5149811;27;20507;-58
2023/07/25 13:46:00;;;;;;;0.10;0.10;;;;;;;;;;5154411;27;20446;-57
2023/07/25 13:48:30;;;;;;;0.10;0.10;;;;;;;;;;5151134;27;20053;-57
2023/07/25 13:50:55;;;;;;;0.10;0.10;;;;;;;;;;5152598;27;20046;-57
2023/07/25 13:53:21;;;;;;;0.10;0.10;;;;;;;;;;5153472;27;20043;-58
2023/07/25 13:55:47;;;;;;;0.10;0.10;;;;;;;;;;5153205;27;20125;-57
2023/07/25 13:58:12;;;;;;;0.10;0.10;;;;;;;;;;5152194;27;20047;-58
2023/07/25 14:00:48;;;;;;;0.10;0.10;;;;;;;;;;5143387;27;20129;-57
2023/07/25 14:03:13;;;;;;;0.10;0.10;;;;;;;;;;5148241;27;20475;-57
2023/07/25 14:05:39;;;;;;;0.10;0.10;;;;;;;;;;5153033;27;20143;-56
2023/07/25 14:08:07;;;;;;;0.10;0.10;;;;;;;;;;5153301;27;20047;-58
2023/07/25 14:10:32;;;;;;;0.10;0.10;;;;;;;;;;5151964;27;20065;-57
2023/07/25 14:12:58;;;;;;;0.10;0.10;;;;;;;;;;5152685;27;20535;-58
2023/07/25 14:15:24;;;;;;;0.10;0.10;;;;;;;;;;5153007;27;20445;-57
2023/07/25 14:17:49;;;;;;;0.17;0.17;;;;;;;;;;5152416;27;20084;-57
2023/07/25 14:20:15;;;;;;;0.10;0.10;;;;;;;;;;5151972;27;20497;-57
2023/07/25 14:22:40;;;;;;;0.20;0.20;;;;;;;;;;5151978;27;20074;-57
2023/07/25 14:25:06;;;;;;;0.13;0.13;;;;;;;;;;5150324;27;20136;-57
2023/07/25 14:27:32;;;;;;;0.10;0.10;;;;;;;;;;5153231;27;20047;-58
2023/07/25 14:29:58;;;;;;;0.20;0.20;;;;;;;;;;5150488;27;20054;-57
2023/07/25 14:32:23;;;;;;;0.10;0.10;;;;;;;;;;5152099;27;20043;-57
2023/07/25 14:34:52;;;;;;;0.10;0.10;;;;;;;;;;5152750;27;20074;-57
2023/07/25 14:37:17;;;;;;;0.10;0.10;;;;;;;;;;5151129;27;20467;-57
2023/07/25 14:39:43;;;;;;;0.10;0.10;;;;;;;;;;5151959;27;20371;-58